Nære METAR værraporter

   
ENGM - Oslo
Oppdatert: 23-08-2019 16:50
Klart  
Klart  
   Vind: VSV 5.1 m/s
Vind: VSV 5.1 m/s
Temperatur: 21°C
Duggpunkt: 6°C
Luftfuktighet: 38%
Barometer: 1016 hPa
Sikt: More than 10 km
Detaljer skyer: Klart
ENGM 231450Z 24010KT 210V330 CAVOK 21/06 Q1016 NOSIG
ENTO - Sandefjord
Oppdatert: 23-08-2019 17:20
Klart  
Klart  
   Vind: VEST 3.6 m/s
Vind: VEST 3.6 m/s
Temperatur: 23°C
Duggpunkt: 9°C
Luftfuktighet: 41%
Barometer: 1018 hPa
Sikt: More than 10 km
Detaljer skyer: Klart
ENTO 231520Z 26007KT 220V320 CAVOK 23/09 Q1018 NOSIG
ENNO - Notodden
Oppdatert: 23-08-2019 16:50
Klart  
Klart  
   Vind: VEST 2.6 m/s
Vind: VEST 2.6 m/s
Temperatur: 23°C
Duggpunkt: 7°C
Luftfuktighet: 36%
Barometer: 1017 hPa
Sikt: More than 10 km
Detaljer skyer: Klart
ENNO 231450Z 27005KT CAVOK 23/07 Q1017
ENRY - Rygge
Oppdatert: 23-08-2019 17:20
Klart  
Klart  
   Vind: Sør 4.6 m/s
Vind: Sør 4.6 m/s
Temperatur: 21°C
Duggpunkt: 14°C
Luftfuktighet: 64%
Barometer: 1018 hPa
Sikt: More than 10 km
Detaljer skyer: Klart
ENRY 231520Z 18009KT 140V210 CAVOK 21/14 Q1018
ENSN - Skien
Oppdatert: 09-11-2015 09:50
Oppdatert, se klokkeslett
Klart  
Klart  
   Vind: SSV 5.1 m/s<br />Gust to 5.1 m/s
Vind: SSV 5.1 m/s
Gust to 5.1 m/s
Temperatur: 7°C
Wind Chill: 4°C
Duggpunkt: 3°C
Luftfuktighet: 76%
Barometer: 1000 hPa
Sikt: More than 10 km
Detaljer skyer: Klart
ENSN 090850Z 20010G22KT 150V240 CAVOK 07/03 Q1000
ENFG - Fagernes
Oppdatert: 22-04-2018 10:50
Oppdatert, se klokkeslett
Klart  
Klart  
   Vind: Sør 3.6 m/s
Vind: Sør 3.6 m/s
Temperatur: 6°C
Wind Chill: 3°C
Duggpunkt: -3°C
Luftfuktighet: 53%
Barometer: 1014 hPa
Sikt: More than 10 km
Detaljer skyer: Klart
ENFG 220850Z 19007KT CAVOK 06/M03 Q1014

Script utviklet av  Saratoga-weather.org Tilpasset for tamplaten av  Weerstation Leuven

Du finner min vær info også på:

European Weather Network

Weather Underground

European Weather Network